sensor_id;sensor_type;location;lat;lon;timestamp;P1;durP1;ratioP1;P2;durP2;ratioP2
40501;SDS011;29631;49.168;9.848;2022-09-25T00:00:57;8.38;;;7.85;;
40501;SDS011;29631;49.168;9.848;2022-09-25T00:03:24;9.93;;;9.23;;
40501;SDS011;29631;49.168;9.848;2022-09-25T00:05:52;8.63;;;8.02;;
40501;SDS011;29631;49.168;9.848;2022-09-25T00:08:30;9.40;;;8.70;;
40501;SDS011;29631;49.168;9.848;2022-09-25T00:10:56;9.07;;;8.48;;
40501;SDS011;29631;49.168;9.848;2022-09-25T00:13:22;8.90;;;8.23;;
40501;SDS011;29631;49.168;9.848;2022-09-25T00:15:53;9.63;;;8.93;;
40501;SDS011;29631;49.168;9.848;2022-09-25T00:18:20;9.45;;;8.75;;
40501;SDS011;29631;49.168;9.848;2022-09-25T00:21:07;8.73;;;8.15;;
40501;SDS011;29631;49.168;9.848;2022-09-25T00:23:38;9.02;;;8.32;;
40501;SDS011;29631;49.168;9.848;2022-09-25T00:26:06;8.75;;;8.13;;
40501;SDS011;29631;49.168;9.848;2022-09-25T00:28:34;11.20;;;10.30;;
40501;SDS011;29631;49.168;9.848;2022-09-25T00:31:01;11.50;;;10.60;;
40501;SDS011;29631;49.168;9.848;2022-09-25T00:33:29;11.20;;;10.30;;
40501;SDS011;29631;49.168;9.848;2022-09-25T00:36:06;11.50;;;10.60;;
40501;SDS011;29631;49.168;9.848;2022-09-25T00:38:34;11.43;;;10.52;;
40501;SDS011;29631;49.168;9.848;2022-09-25T00:41:02;11.63;;;10.73;;
40501;SDS011;29631;49.168;9.848;2022-09-25T00:43:34;10.60;;;9.75;;
40501;SDS011;29631;49.168;9.848;2022-09-25T00:46:02;10.23;;;9.48;;
40501;SDS011;29631;49.168;9.848;2022-09-25T00:48:46;10.05;;;9.20;;
40501;SDS011;29631;49.168;9.848;2022-09-25T00:51:22;9.32;;;8.52;;
40501;SDS011;29631;49.168;9.848;2022-09-25T00:53:53;9.40;;;8.70;;
40501;SDS011;29631;49.168;9.848;2022-09-25T00:56:29;9.73;;;9.05;;
40501;SDS011;29631;49.168;9.848;2022-09-25T00:59:01;8.77;;;8.18;;
40501;SDS011;29631;49.168;9.848;2022-09-25T01:01:28;9.25;;;8.55;;
40501;SDS011;29631;49.168;9.848;2022-09-25T01:03:53;10.05;;;9.27;;
40501;SDS011;29631;49.168;9.848;2022-09-25T01:06:20;8.65;;;8.05;;
40501;SDS011;29631;49.168;9.848;2022-09-25T01:08:49;9.27;;;8.68;;
40501;SDS011;29631;49.168;9.848;2022-09-25T01:11:15;9.40;;;8.73;;
40501;SDS011;29631;49.168;9.848;2022-09-25T01:13:41;9.20;;;8.52;;
40501;SDS011;29631;49.168;9.848;2022-09-25T01:16:15;9.00;;;8.40;;
40501;SDS011;29631;49.168;9.848;2022-09-25T01:21:49;8.82;;;8.23;;
40501;SDS011;29631;49.168;9.848;2022-09-25T01:30:37;8.50;;;7.90;;
40501;SDS011;29631;49.168;9.848;2022-09-25T01:33:26;9.25;;;8.45;;
40501;SDS011;29631;49.168;9.848;2022-09-25T01:36:10;10.00;;;9.30;;
40501;SDS011;29631;49.168;9.848;2022-09-25T01:38:50;9.45;;;8.63;;
40501;SDS011;29631;49.168;9.848;2022-09-25T01:46:58;10.93;;;9.93;;
40501;SDS011;29631;49.168;9.848;2022-09-25T01:49:38;10.10;;;9.40;;
40501;SDS011;29631;49.168;9.848;2022-09-25T01:52:16;11.30;;;10.50;;
40501;SDS011;29631;49.168;9.848;2022-09-25T01:54:53;10.68;;;9.93;;
40501;SDS011;29631;49.168;9.848;2022-09-25T01:57:33;11.63;;;10.75;;
40501;SDS011;29631;49.168;9.848;2022-09-25T02:00:14;10.23;;;9.43;;
40501;SDS011;29631;49.168;9.848;2022-09-25T02:02:51;10.70;;;9.95;;
40501;SDS011;29631;49.168;9.848;2022-09-25T02:06:04;9.45;;;8.75;;
40501;SDS011;29631;49.168;9.848;2022-09-25T02:08:28;8.30;;;7.78;;
40501;SDS011;29631;49.168;9.848;2022-09-25T02:11:01;8.32;;;7.78;;
40501;SDS011;29631;49.168;9.848;2022-09-25T02:13:49;8.18;;;7.68;;
40501;SDS011;29631;49.168;9.848;2022-09-25T02:16:24;8.43;;;7.82;;
40501;SDS011;29631;49.168;9.848;2022-09-25T02:18:57;8.70;;;8.10;;
40501;SDS011;29631;49.168;9.848;2022-09-25T02:24:33;8.13;;;7.55;;
40501;SDS011;29631;49.168;9.848;2022-09-25T02:27:20;8.40;;;7.80;;
40501;SDS011;29631;49.168;9.848;2022-09-25T02:29:48;9.32;;;8.63;;
40501;SDS011;29631;49.168;9.848;2022-09-25T02:32:16;9.05;;;8.45;;
40501;SDS011;29631;49.168;9.848;2022-09-25T02:34:46;9.32;;;8.63;;
40501;SDS011;29631;49.168;9.848;2022-09-25T02:37:13;8.70;;;8.10;;
40501;SDS011;29631;49.168;9.848;2022-09-25T02:39:40;9.23;;;8.52;;
40501;SDS011;29631;49.168;9.848;2022-09-25T02:53:15;9.40;;;8.70;;
40501;SDS011;29631;49.168;9.848;2022-09-25T02:56:02;10.63;;;9.82;;
40501;SDS011;29631;49.168;9.848;2022-09-25T02:58:41;9.93;;;9.15;;
40501;SDS011;29631;49.168;9.848;2022-09-25T03:01:16;9.02;;;8.32;;
40501;SDS011;29631;49.168;9.848;2022-09-25T03:03:46;9.85;;;9.15;;
40501;SDS011;29631;49.168;9.848;2022-09-25T03:06:15;9.85;;;9.15;;
40501;SDS011;29631;49.168;9.848;2022-09-25T03:08:43;10.07;;;9.38;;
40501;SDS011;29631;49.168;9.848;2022-09-25T03:11:14;9.60;;;8.90;;
40501;SDS011;29631;49.168;9.848;2022-09-25T03:13:43;9.45;;;8.75;;
40501;SDS011;29631;49.168;9.848;2022-09-25T03:16:11;10.07;;;9.38;;
40501;SDS011;29631;49.168;9.848;2022-09-25T03:18:57;9.10;;;8.50;;
40501;SDS011;29631;49.168;9.848;2022-09-25T03:21:23;9.57;;;8.77;;
40501;SDS011;29631;49.168;9.848;2022-09-25T03:23:48;10.05;;;9.25;;
40501;SDS011;29631;49.168;9.848;2022-09-25T03:26:14;9.95;;;9.15;;
40501;SDS011;29631;49.168;9.848;2022-09-25T03:28:40;10.40;;;9.68;;
40501;SDS011;29631;49.168;9.848;2022-09-25T03:31:06;10.82;;;9.73;;
40501;SDS011;29631;49.168;9.848;2022-09-25T03:33:36;10.68;;;9.88;;
40501;SDS011;29631;49.168;9.848;2022-09-25T03:38:41;9.82;;;9.13;;
40501;SDS011;29631;49.168;9.848;2022-09-25T03:41:10;9.70;;;9.00;;
40501;SDS011;29631;49.168;9.848;2022-09-25T03:43:38;7.72;;;7.13;;
40501;SDS011;29631;49.168;9.848;2022-09-25T03:46:07;9.07;;;8.48;;
40501;SDS011;29631;49.168;9.848;2022-09-25T03:48:36;10.38;;;9.60;;
40501;SDS011;29631;49.168;9.848;2022-09-25T03:51:03;10.07;;;9.38;;
40501;SDS011;29631;49.168;9.848;2022-09-25T03:53:30;12.98;;;9.60;;
40501;SDS011;29631;49.168;9.848;2022-09-25T03:55:57;10.00;;;9.23;;
40501;SDS011;29631;49.168;9.848;2022-09-25T03:58:29;8.52;;;7.93;;
40501;SDS011;29631;49.168;9.848;2022-09-25T04:00:55;8.77;;;8.18;;
40501;SDS011;29631;49.168;9.848;2022-09-25T04:03:22;9.77;;;9.02;;
40501;SDS011;29631;49.168;9.848;2022-09-25T04:05:49;9.32;;;8.65;;
40501;SDS011;29631;49.168;9.848;2022-09-25T04:08:15;9.32;;;8.63;;
40501;SDS011;29631;49.168;9.848;2022-09-25T04:10:40;9.43;;;8.73;;
40501;SDS011;29631;49.168;9.848;2022-09-25T04:13:07;9.57;;;8.88;;
40501;SDS011;29631;49.168;9.848;2022-09-25T04:15:36;9.90;;;9.20;;
40501;SDS011;29631;49.168;9.848;2022-09-25T04:18:04;9.82;;;9.10;;
40501;SDS011;29631;49.168;9.848;2022-09-25T04:20:30;10.00;;;9.30;;
40501;SDS011;29631;49.168;9.848;2022-09-25T04:22:56;11.32;;;10.30;;
40501;SDS011;29631;49.168;9.848;2022-09-25T04:25:22;9.90;;;9.15;;
40501;SDS011;29631;49.168;9.848;2022-09-25T04:27:50;9.88;;;9.18;;
40501;SDS011;29631;49.168;9.848;2022-09-25T04:30:26;10.00;;;9.30;;
40501;SDS011;29631;49.168;9.848;2022-09-25T04:32:53;9.90;;;9.20;;
40501;SDS011;29631;49.168;9.848;2022-09-25T04:35:38;9.40;;;8.70;;
40501;SDS011;29631;49.168;9.848;2022-09-25T04:38:05;8.57;;;7.97;;
40501;SDS011;29631;49.168;9.848;2022-09-25T04:40:31;7.85;;;7.35;;
40501;SDS011;29631;49.168;9.848;2022-09-25T04:42:57;8.10;;;7.50;;
40501;SDS011;29631;49.168;9.848;2022-09-25T04:45:25;8.27;;;7.68;;
40501;SDS011;29631;49.168;9.848;2022-09-25T04:47:52;7.88;;;7.38;;
40501;SDS011;29631;49.168;9.848;2022-09-25T04:50:22;7.95;;;7.35;;
40501;SDS011;29631;49.168;9.848;2022-09-25T04:52:49;7.90;;;7.40;;
40501;SDS011;29631;49.168;9.848;2022-09-25T04:55:20;7.93;;;7.43;;
40501;SDS011;29631;49.168;9.848;2022-09-25T04:57:51;8.32;;;7.78;;
40501;SDS011;29631;49.168;9.848;2022-09-25T05:00:18;10.95;;;8.02;;
40501;SDS011;29631;49.168;9.848;2022-09-25T05:02:47;8.82;;;8.13;;
40501;SDS011;29631;49.168;9.848;2022-09-25T05:05:13;8.60;;;7.97;;
40501;SDS011;29631;49.168;9.848;2022-09-25T05:07:40;8.80;;;8.20;;
40501;SDS011;29631;49.168;9.848;2022-09-25T05:10:27;8.65;;;8.05;;
40501;SDS011;29631;49.168;9.848;2022-09-25T05:12:55;8.52;;;7.88;;
40501;SDS011;29631;49.168;9.848;2022-09-25T05:15:23;8.95;;;8.35;;
40501;SDS011;29631;49.168;9.848;2022-09-25T05:17:58;8.23;;;7.53;;
40501;SDS011;29631;49.168;9.848;2022-09-25T05:20:25;8.68;;;8.07;;
40501;SDS011;29631;49.168;9.848;2022-09-25T05:22:57;8.95;;;8.32;;
40501;SDS011;29631;49.168;9.848;2022-09-25T05:25:24;7.75;;;7.25;;
40501;SDS011;29631;49.168;9.848;2022-09-25T05:27:51;8.27;;;7.68;;
40501;SDS011;29631;49.168;9.848;2022-09-25T05:30:19;8.15;;;7.55;;
40501;SDS011;29631;49.168;9.848;2022-09-25T05:32:47;8.57;;;7.97;;
40501;SDS011;29631;49.168;9.848;2022-09-25T05:35:15;8.60;;;8.00;;
40501;SDS011;29631;49.168;9.848;2022-09-25T05:37:45;8.52;;;7.93;;
40501;SDS011;29631;49.168;9.848;2022-09-25T05:40:11;8.60;;;7.97;;
40501;SDS011;29631;49.168;9.848;2022-09-25T05:42:41;8.43;;;7.82;;
40501;SDS011;29631;49.168;9.848;2022-09-25T05:45:08;7.63;;;7.13;;
40501;SDS011;29631;49.168;9.848;2022-09-25T05:47:38;7.82;;;7.28;;
40501;SDS011;29631;49.168;9.848;2022-09-25T05:50:05;7.95;;;7.43;;
40501;SDS011;29631;49.168;9.848;2022-09-25T05:52:33;8.30;;;7.68;;
40501;SDS011;29631;49.168;9.848;2022-09-25T05:54:59;8.43;;;7.82;;
40501;SDS011;29631;49.168;9.848;2022-09-25T05:57:29;8.60;;;7.90;;
40501;SDS011;29631;49.168;9.848;2022-09-25T05:59:56;8.05;;;7.45;;
40501;SDS011;29631;49.168;9.848;2022-09-25T06:02:22;8.38;;;7.78;;
40501;SDS011;29631;49.168;9.848;2022-09-25T06:04:49;8.30;;;7.70;;
40501;SDS011;29631;49.168;9.848;2022-09-25T06:07:14;8.52;;;7.93;;
40501;SDS011;29631;49.168;9.848;2022-09-25T06:09:40;7.65;;;7.15;;
40501;SDS011;29631;49.168;9.848;2022-09-25T06:12:06;6.68;;;6.28;;
40501;SDS011;29631;49.168;9.848;2022-09-25T06:14:32;7.10;;;6.60;;
40501;SDS011;29631;49.168;9.848;2022-09-25T06:17:01;6.90;;;6.40;;
40501;SDS011;29631;49.168;9.848;2022-09-25T06:19:28;8.23;;;7.53;;
40501;SDS011;29631;49.168;9.848;2022-09-25T06:21:54;6.70;;;6.28;;
40501;SDS011;29631;49.168;9.848;2022-09-25T06:24:21;7.18;;;6.68;;
40501;SDS011;29631;49.168;9.848;2022-09-25T06:26:48;6.70;;;6.30;;
40501;SDS011;29631;49.168;9.848;2022-09-25T06:29:14;6.78;;;6.35;;
40501;SDS011;29631;49.168;9.848;2022-09-25T06:31:40;7.03;;;6.53;;
40501;SDS011;29631;49.168;9.848;2022-09-25T06:34:07;6.30;;;5.90;;
40501;SDS011;29631;49.168;9.848;2022-09-25T06:36:34;7.18;;;6.68;;
40501;SDS011;29631;49.168;9.848;2022-09-25T06:39:00;6.60;;;6.10;;
40501;SDS011;29631;49.168;9.848;2022-09-25T06:41:26;6.30;;;5.90;;
40501;SDS011;29631;49.168;9.848;2022-09-25T06:43:52;7.45;;;6.90;;
40501;SDS011;29631;49.168;9.848;2022-09-25T06:46:19;7.15;;;6.65;;
40501;SDS011;29631;49.168;9.848;2022-09-25T06:48:54;7.35;;;6.85;;
40501;SDS011;29631;49.168;9.848;2022-09-25T06:51:24;6.55;;;6.13;;
40501;SDS011;29631;49.168;9.848;2022-09-25T06:53:56;6.43;;;6.03;;
40501;SDS011;29631;49.168;9.848;2022-09-25T06:56:22;6.43;;;6.03;;
40501;SDS011;29631;49.168;9.848;2022-09-25T06:58:48;7.55;;;6.70;;
40501;SDS011;29631;49.168;9.848;2022-09-25T07:01:14;6.22;;;5.75;;
40501;SDS011;29631;49.168;9.848;2022-09-25T07:03:40;6.68;;;6.28;;
40501;SDS011;29631;49.168;9.848;2022-09-25T07:08:50;5.95;;;5.55;;
40501;SDS011;29631;49.168;9.848;2022-09-25T07:11:18;6.40;;;5.90;;
40501;SDS011;29631;49.168;9.848;2022-09-25T07:13:46;5.43;;;5.13;;
40501;SDS011;29631;49.168;9.848;2022-09-25T07:16:14;5.85;;;5.50;;
40501;SDS011;29631;49.168;9.848;2022-09-25T07:18:42;6.00;;;5.60;;
40501;SDS011;29631;49.168;9.848;2022-09-25T07:21:13;4.95;;;4.55;;
40501;SDS011;29631;49.168;9.848;2022-09-25T07:23:45;5.85;;;5.35;;
40501;SDS011;29631;49.168;9.848;2022-09-25T07:28:46;5.80;;;5.40;;
40501;SDS011;29631;49.168;9.848;2022-09-25T07:31:25;5.45;;;5.13;;
40501;SDS011;29631;49.168;9.848;2022-09-25T07:33:56;6.00;;;5.45;;
40501;SDS011;29631;49.168;9.848;2022-09-25T07:36:24;5.63;;;5.28;;
40501;SDS011;29631;49.168;9.848;2022-09-25T07:38:50;5.53;;;5.20;;
40501;SDS011;29631;49.168;9.848;2022-09-25T07:41:17;5.82;;;5.43;;
40501;SDS011;29631;49.168;9.848;2022-09-25T07:43:46;6.28;;;5.88;;
40501;SDS011;29631;49.168;9.848;2022-09-25T07:46:16;6.60;;;6.13;;
40501;SDS011;29631;49.168;9.848;2022-09-25T07:48:42;6.22;;;5.68;;
40501;SDS011;29631;49.168;9.848;2022-09-25T07:51:09;6.63;;;6.13;;
40501;SDS011;29631;49.168;9.848;2022-09-25T07:53:36;6.88;;;6.38;;
40501;SDS011;29631;49.168;9.848;2022-09-25T07:56:03;6.45;;;5.95;;
40501;SDS011;29631;49.168;9.848;2022-09-25T07:58:29;7.10;;;6.60;;
40501;SDS011;29631;49.168;9.848;2022-09-25T08:00:58;6.80;;;6.30;;
40501;SDS011;29631;49.168;9.848;2022-09-25T08:03:26;6.72;;;6.25;;
40501;SDS011;29631;49.168;9.848;2022-09-25T08:05:56;7.03;;;6.43;;
40501;SDS011;29631;49.168;9.848;2022-09-25T08:08:23;7.25;;;6.68;;
40501;SDS011;29631;49.168;9.848;2022-09-25T08:10:51;7.60;;;7.00;;
40501;SDS011;29631;49.168;9.848;2022-09-25T08:13:19;7.38;;;6.88;;
40501;SDS011;29631;49.168;9.848;2022-09-25T08:15:45;7.55;;;6.95;;
40501;SDS011;29631;49.168;9.848;2022-09-25T08:18:12;7.93;;;7.38;;
40501;SDS011;29631;49.168;9.848;2022-09-25T08:20:38;7.80;;;7.22;;
40501;SDS011;29631;49.168;9.848;2022-09-25T08:23:04;7.20;;;6.70;;
40501;SDS011;29631;49.168;9.848;2022-09-25T08:25:31;8.00;;;7.40;;
40501;SDS011;29631;49.168;9.848;2022-09-25T08:27:56;6.97;;;6.47;;
40501;SDS011;29631;49.168;9.848;2022-09-25T08:30:22;8.35;;;7.75;;
40501;SDS011;29631;49.168;9.848;2022-09-25T08:32:48;7.40;;;6.80;;
40501;SDS011;29631;49.168;9.848;2022-09-25T08:35:16;7.85;;;7.25;;
40501;SDS011;29631;49.168;9.848;2022-09-25T08:37:42;8.35;;;7.65;;
40501;SDS011;29631;49.168;9.848;2022-09-25T08:40:16;7.82;;;7.30;;
40501;SDS011;29631;49.168;9.848;2022-09-25T08:42:45;8.25;;;7.63;;
40501;SDS011;29631;49.168;9.848;2022-09-25T08:45:28;8.05;;;7.45;;
40501;SDS011;29631;49.168;9.848;2022-09-25T08:48:22;8.10;;;7.50;;
40501;SDS011;29631;49.168;9.848;2022-09-25T08:51:11;7.90;;;7.30;;
40501;SDS011;29631;49.168;9.848;2022-09-25T08:53:37;8.15;;;7.57;;
40501;SDS011;29631;49.168;9.848;2022-09-25T08:56:08;8.40;;;7.70;;
40501;SDS011;29631;49.168;9.848;2022-09-25T08:58:39;7.85;;;7.25;;
40501;SDS011;29631;49.168;9.848;2022-09-25T09:01:15;8.00;;;7.45;;
40501;SDS011;29631;49.168;9.848;2022-09-25T09:04:13;6.78;;;6.28;;
40501;SDS011;29631;49.168;9.848;2022-09-25T09:06:51;7.40;;;6.80;;
40501;SDS011;29631;49.168;9.848;2022-09-25T09:09:23;8.20;;;7.60;;
40501;SDS011;29631;49.168;9.848;2022-09-25T09:12:09;8.65;;;7.85;;
40501;SDS011;29631;49.168;9.848;2022-09-25T09:14:42;8.00;;;7.40;;
40501;SDS011;29631;49.168;9.848;2022-09-25T09:17:16;8.23;;;7.63;;
40501;SDS011;29631;49.168;9.848;2022-09-25T09:19:51;7.88;;;7.38;;
40501;SDS011;29631;49.168;9.848;2022-09-25T09:22:38;7.22;;;6.72;;
40501;SDS011;29631;49.168;9.848;2022-09-25T09:25:23;7.97;;;7.38;;
40501;SDS011;29631;49.168;9.848;2022-09-25T09:37:14;8.98;;;8.27;;
40501;SDS011;29631;49.168;9.848;2022-09-25T09:46:04;7.50;;;7.00;;
40501;SDS011;29631;49.168;9.848;2022-09-25T09:51:59;6.70;;;6.20;;
40501;SDS011;29631;49.168;9.848;2022-09-25T09:54:58;7.47;;;6.88;;
40501;SDS011;29631;49.168;9.848;2022-09-25T09:58:02;5.95;;;5.55;;
40501;SDS011;29631;49.168;9.848;2022-09-25T10:00:35;6.55;;;6.07;;
40501;SDS011;29631;49.168;9.848;2022-09-25T10:03:04;6.22;;;5.72;;
40501;SDS011;29631;49.168;9.848;2022-09-25T10:05:47;6.45;;;5.95;;
40501;SDS011;29631;49.168;9.848;2022-09-25T10:08:15;5.38;;;4.88;;
40501;SDS011;29631;49.168;9.848;2022-09-25T10:10:43;5.53;;;5.13;;
40501;SDS011;29631;49.168;9.848;2022-09-25T10:13:15;5.40;;;5.00;;
40501;SDS011;29631;49.168;9.848;2022-09-25T10:18:40;4.43;;;4.13;;
40501;SDS011;29631;49.168;9.848;2022-09-25T10:21:38;5.03;;;4.70;;
40501;SDS011;29631;49.168;9.848;2022-09-25T10:24:09;4.32;;;4.03;;
40501;SDS011;29631;49.168;9.848;2022-09-25T10:27:34;4.68;;;4.38;;
40501;SDS011;29631;49.168;9.848;2022-09-25T10:30:14;4.65;;;4.28;;
40501;SDS011;29631;49.168;9.848;2022-09-25T10:32:51;4.57;;;4.28;;
40501;SDS011;29631;49.168;9.848;2022-09-25T10:41:09;4.93;;;4.63;;
40501;SDS011;29631;49.168;9.848;2022-09-25T10:46:30;5.90;;;5.50;;
40501;SDS011;29631;49.168;9.848;2022-09-25T10:49:20;5.82;;;5.43;;
40501;SDS011;29631;49.168;9.848;2022-09-25T10:52:11;4.88;;;4.57;;
40501;SDS011;29631;49.168;9.848;2022-09-25T10:54:40;5.00;;;4.65;;
40501;SDS011;29631;49.168;9.848;2022-09-25T10:57:16;4.78;;;4.47;;
40501;SDS011;29631;49.168;9.848;2022-09-25T11:00:17;4.30;;;4.00;;
40501;SDS011;29631;49.168;9.848;2022-09-25T11:02:49;4.15;;;3.90;;
40501;SDS011;29631;49.168;9.848;2022-09-25T11:05:26;4.70;;;4.32;;
40501;SDS011;29631;49.168;9.848;2022-09-25T11:07:56;3.13;;;2.97;;
40501;SDS011;29631;49.168;9.848;2022-09-25T11:10:35;3.30;;;3.15;;
40501;SDS011;29631;49.168;9.848;2022-09-25T11:13:25;3.25;;;3.10;;
40501;SDS011;29631;49.168;9.848;2022-09-25T11:15:56;2.75;;;2.55;;
40501;SDS011;29631;49.168;9.848;2022-09-25T11:21:29;2.70;;;2.60;;
40501;SDS011;29631;49.168;9.848;2022-09-25T11:24:11;3.00;;;2.90;;
40501;SDS011;29631;49.168;9.848;2022-09-25T11:26:42;2.55;;;2.45;;
40501;SDS011;29631;49.168;9.848;2022-09-25T11:41:38;2.60;;;2.50;;
40501;SDS011;29631;49.168;9.848;2022-09-25T11:47:25;2.38;;;2.28;;
40501;SDS011;29631;49.168;9.848;2022-09-25T11:50:13;2.80;;;2.70;;
40501;SDS011;29631;49.168;9.848;2022-09-25T11:58:39;2.05;;;1.95;;
40501;SDS011;29631;49.168;9.848;2022-09-25T12:04:20;2.00;;;1.95;;
40501;SDS011;29631;49.168;9.848;2022-09-25T12:10:37;2.25;;;2.15;;
40501;SDS011;29631;49.168;9.848;2022-09-25T12:19:19;2.78;;;2.58;;
40501;SDS011;29631;49.168;9.848;2022-09-25T12:22:16;2.08;;;2.08;;
40501;SDS011;29631;49.168;9.848;2022-09-25T12:31:12;2.08;;;1.98;;
40501;SDS011;29631;49.168;9.848;2022-09-25T12:36:49;2.33;;;2.20;;
40501;SDS011;29631;49.168;9.848;2022-09-25T12:39:46;2.25;;;2.20;;
40501;SDS011;29631;49.168;9.848;2022-09-25T12:42:29;1.90;;;1.90;;
40501;SDS011;29631;49.168;9.848;2022-09-25T12:48:11;2.33;;;2.22;;
40501;SDS011;29631;49.168;9.848;2022-09-25T12:51:13;2.08;;;1.98;;
40501;SDS011;29631;49.168;9.848;2022-09-25T12:53:49;2.08;;;1.98;;
40501;SDS011;29631;49.168;9.848;2022-09-25T12:58:59;3.55;;;3.40;;
40501;SDS011;29631;49.168;9.848;2022-09-25T13:10:30;2.22;;;2.13;;
40501;SDS011;29631;49.168;9.848;2022-09-25T13:13:26;2.15;;;2.05;;
40501;SDS011;29631;49.168;9.848;2022-09-25T13:15:56;2.05;;;1.95;;
40501;SDS011;29631;49.168;9.848;2022-09-25T13:18:25;2.35;;;2.25;;
40501;SDS011;29631;49.168;9.848;2022-09-25T13:25:53;2.20;;;2.10;;
40501;SDS011;29631;49.168;9.848;2022-09-25T13:28:29;2.20;;;2.10;;
40501;SDS011;29631;49.168;9.848;2022-09-25T13:31:01;2.20;;;2.10;;
40501;SDS011;29631;49.168;9.848;2022-09-25T13:34:21;2.22;;;2.13;;
40501;SDS011;29631;49.168;9.848;2022-09-25T13:38:50;2.10;;;2.00;;
40501;SDS011;29631;49.168;9.848;2022-09-25T13:44:37;2.65;;;2.55;;
40501;SDS011;29631;49.168;9.848;2022-09-25T14:00:22;2.78;;;2.67;;
40501;SDS011;29631;49.168;9.848;2022-09-25T14:02:50;3.08;;;2.63;;
40501;SDS011;29631;49.168;9.848;2022-09-25T14:05:25;3.30;;;3.17;;
40501;SDS011;29631;49.168;9.848;2022-09-25T14:08:00;3.28;;;3.08;;
40501;SDS011;29631;49.168;9.848;2022-09-25T14:10:35;3.22;;;3.13;;
40501;SDS011;29631;49.168;9.848;2022-09-25T14:13:10;3.92;;;3.72;;
40501;SDS011;29631;49.168;9.848;2022-09-25T14:15:38;3.60;;;3.40;;
40501;SDS011;29631;49.168;9.848;2022-09-25T14:18:05;4.05;;;3.75;;
40501;SDS011;29631;49.168;9.848;2022-09-25T14:20:42;5.82;;;4.43;;
40501;SDS011;29631;49.168;9.848;2022-09-25T14:23:29;4.30;;;3.90;;
40501;SDS011;29631;49.168;9.848;2022-09-25T14:26:14;4.10;;;3.90;;
40501;SDS011;29631;49.168;9.848;2022-09-25T14:28:53;3.60;;;3.40;;
40501;SDS011;29631;49.168;9.848;2022-09-25T14:43:26;10.45;;;9.55;;
40501;SDS011;29631;49.168;9.848;2022-09-25T14:46:41;8.13;;;7.53;;
40501;SDS011;29631;49.168;9.848;2022-09-25T14:49:12;8.73;;;8.02;;
40501;SDS011;29631;49.168;9.848;2022-09-25T14:51:50;7.15;;;6.55;;
40501;SDS011;29631;49.168;9.848;2022-09-25T14:54:28;6.90;;;6.40;;
40501;SDS011;29631;49.168;9.848;2022-09-25T14:57:02;22.10;;;18.33;;
40501;SDS011;29631;49.168;9.848;2022-09-25T15:02:13;19.27;;;17.33;;
40501;SDS011;29631;49.168;9.848;2022-09-25T15:04:47;12.73;;;11.43;;
40501;SDS011;29631;49.168;9.848;2022-09-25T15:09:50;7.70;;;7.10;;
40501;SDS011;29631;49.168;9.848;2022-09-25T15:12:22;4.35;;;4.05;;
40501;SDS011;29631;49.168;9.848;2022-09-25T15:14:56;3.00;;;2.90;;
40501;SDS011;29631;49.168;9.848;2022-09-25T15:17:25;3.10;;;2.90;;
40501;SDS011;29631;49.168;9.848;2022-09-25T15:19:52;3.97;;;3.78;;
40501;SDS011;29631;49.168;9.848;2022-09-25T15:22:22;4.22;;;4.03;;
40501;SDS011;29631;49.168;9.848;2022-09-25T15:24:53;5.22;;;4.72;;
40501;SDS011;29631;49.168;9.848;2022-09-25T15:27:22;4.10;;;3.80;;
40501;SDS011;29631;49.168;9.848;2022-09-25T15:29:48;5.53;;;5.13;;
40501;SDS011;29631;49.168;9.848;2022-09-25T15:32:20;10.55;;;9.65;;
40501;SDS011;29631;49.168;9.848;2022-09-25T15:37:48;10.00;;;9.10;;
40501;SDS011;29631;49.168;9.848;2022-09-25T15:40:21;32.92;;;25.05;;
40501;SDS011;29631;49.168;9.848;2022-09-25T15:42:51;16.85;;;14.27;;
40501;SDS011;29631;49.168;9.848;2022-09-25T15:48:31;5.00;;;4.60;;
40501;SDS011;29631;49.168;9.848;2022-09-25T15:51:01;5.13;;;4.78;;
40501;SDS011;29631;49.168;9.848;2022-09-25T15:53:36;5.97;;;5.53;;
40501;SDS011;29631;49.168;9.848;2022-09-25T15:56:22;4.65;;;4.32;;
40501;SDS011;29631;49.168;9.848;2022-09-25T15:59:04;2.95;;;2.85;;
40501;SDS011;29631;49.168;9.848;2022-09-25T16:01:50;2.50;;;2.40;;
40501;SDS011;29631;49.168;9.848;2022-09-25T16:04:35;2.30;;;2.20;;
40501;SDS011;29631;49.168;9.848;2022-09-25T16:07:36;2.28;;;2.03;;
40501;SDS011;29631;49.168;9.848;2022-09-25T16:12:50;1.90;;;1.80;;
40501;SDS011;29631;49.168;9.848;2022-09-25T16:22:55;2.85;;;2.75;;
40501;SDS011;29631;49.168;9.848;2022-09-25T16:25:29;2.47;;;2.38;;
40501;SDS011;29631;49.168;9.848;2022-09-25T16:28:07;2.58;;;2.47;;
40501;SDS011;29631;49.168;9.848;2022-09-25T16:30:55;4.53;;;4.22;;
40501;SDS011;29631;49.168;9.848;2022-09-25T16:33:31;3.25;;;3.05;;
40501;SDS011;29631;49.168;9.848;2022-09-25T16:36:11;4.45;;;4.15;;
40501;SDS011;29631;49.168;9.848;2022-09-25T16:38:41;3.75;;;3.55;;
40501;SDS011;29631;49.168;9.848;2022-09-25T16:41:28;2.55;;;2.45;;
40501;SDS011;29631;49.168;9.848;2022-09-25T16:44:37;2.25;;;2.15;;
40501;SDS011;29631;49.168;9.848;2022-09-25T16:49:21;1.33;;;1.33;;
40501;SDS011;29631;49.168;9.848;2022-09-25T16:51:49;1.92;;;1.83;;
40501;SDS011;29631;49.168;9.848;2022-09-25T16:54:18;66.30;;;37.28;;
40501;SDS011;29631;49.168;9.848;2022-09-25T16:56:46;64.55;;;38.08;;
40501;SDS011;29631;49.168;9.848;2022-09-25T16:59:17;26.67;;;18.27;;
40501;SDS011;29631;49.168;9.848;2022-09-25T17:01:46;9.57;;;7.85;;
40501;SDS011;29631;49.168;9.848;2022-09-25T17:04:14;5.93;;;4.60;;
40501;SDS011;29631;49.168;9.848;2022-09-25T17:06:40;3.05;;;2.85;;
40501;SDS011;29631;49.168;9.848;2022-09-25T17:09:12;2.80;;;2.70;;
40501;SDS011;29631;49.168;9.848;2022-09-25T17:11:40;2.80;;;2.60;;
40501;SDS011;29631;49.168;9.848;2022-09-25T17:14:15;2.38;;;2.28;;
40501;SDS011;29631;49.168;9.848;2022-09-25T17:16:53;2.58;;;2.47;;
40501;SDS011;29631;49.168;9.848;2022-09-25T17:19:20;2.83;;;2.72;;
40501;SDS011;29631;49.168;9.848;2022-09-25T17:21:47;2.90;;;2.80;;
40501;SDS011;29631;49.168;9.848;2022-09-25T17:24:17;3.05;;;2.92;;
40501;SDS011;29631;49.168;9.848;2022-09-25T17:26:49;4.43;;;4.22;;
40501;SDS011;29631;49.168;9.848;2022-09-25T17:29:16;6.20;;;5.78;;
40501;SDS011;29631;49.168;9.848;2022-09-25T17:31:43;4.65;;;4.30;;
40501;SDS011;29631;49.168;9.848;2022-09-25T17:34:29;4.28;;;3.97;;
40501;SDS011;29631;49.168;9.848;2022-09-25T17:36:55;3.95;;;3.75;;
40501;SDS011;29631;49.168;9.848;2022-09-25T17:39:21;3.67;;;3.47;;
40501;SDS011;29631;49.168;9.848;2022-09-25T17:41:47;3.90;;;3.70;;
40501;SDS011;29631;49.168;9.848;2022-09-25T17:44:15;3.85;;;3.65;;
40501;SDS011;29631;49.168;9.848;2022-09-25T17:46:45;4.75;;;3.70;;
40501;SDS011;29631;49.168;9.848;2022-09-25T17:49:11;4.20;;;3.83;;
40501;SDS011;29631;49.168;9.848;2022-09-25T17:51:37;3.58;;;3.38;;
40501;SDS011;29631;49.168;9.848;2022-09-25T17:54:03;3.08;;;2.97;;
40501;SDS011;29631;49.168;9.848;2022-09-25T17:56:31;3.65;;;3.00;;
40501;SDS011;29631;49.168;9.848;2022-09-25T17:58:58;3.40;;;3.30;;
40501;SDS011;29631;49.168;9.848;2022-09-25T18:01:27;3.00;;;2.83;;
40501;SDS011;29631;49.168;9.848;2022-09-25T18:03:59;3.70;;;3.40;;
40501;SDS011;29631;49.168;9.848;2022-09-25T18:06:28;4.72;;;4.43;;
40501;SDS011;29631;49.168;9.848;2022-09-25T18:08:54;5.03;;;4.72;;
40501;SDS011;29631;49.168;9.848;2022-09-25T18:11:21;4.38;;;4.18;;
40501;SDS011;29631;49.168;9.848;2022-09-25T18:13:52;5.13;;;4.82;;
40501;SDS011;29631;49.168;9.848;2022-09-25T18:16:22;4.68;;;4.38;;
40501;SDS011;29631;49.168;9.848;2022-09-25T18:18:52;5.65;;;5.30;;
40501;SDS011;29631;49.168;9.848;2022-09-25T18:21:36;5.53;;;5.15;;
40501;SDS011;29631;49.168;9.848;2022-09-25T18:24:20;5.78;;;5.38;;
40501;SDS011;29631;49.168;9.848;2022-09-25T18:26:46;5.70;;;5.35;;